Time;durP1;ratioP1;P1;durP2;ratioP2;P2;SDS_P1;SDS_P2;PMS_P1;PMS_P2;Temp;Humidity;BMP_temperature;BMP_pressure;BME280_temperature;BME280_humidity;BME280_pressure;Samples;Min_cycle;Max_cycle;Signal;HPM_P1;HPM_P2
2023/09/29 00:02:11;;;;;;;12.20;4.93;;;;;;;18.56;100.00;101459.94;5303670;28;20044;-70
2023/09/29 00:04:42;;;;;;;15.67;5.13;;;;;;;18.45;100.00;101466.16;5271888;28;20036;-69
2023/09/29 00:07:14;;;;;;;14.00;4.40;;;;;;;18.53;100.00;101462.03;5305089;28;20055;-69
2023/09/29 00:09:45;;;;;;;15.90;5.17;;;;;;;18.53;100.00;101462.88;5318613;28;20664;-70
2023/09/29 00:12:16;;;;;;;11.40;4.07;;;;;;;18.63;100.00;101462.94;5304876;28;20028;-70
2023/09/29 00:14:47;;;;;;;12.33;4.47;;;;;;;18.67;100.00;101466.16;5282420;28;20032;-70
2023/09/29 00:17:19;;;;;;;15.27;6.23;;;;;;;18.60;100.00;101456.09;5296811;28;20098;-70
2023/09/29 00:19:50;;;;;;;14.33;5.17;;;;;;;18.51;100.00;101459.50;5316438;28;20477;-70
2023/09/29 00:22:21;;;;;;;14.83;4.43;;;;;;;18.43;100.00;101461.97;5306209;28;20480;-70
2023/09/29 00:24:54;;;;;;;11.47;4.30;;;;;;;18.55;100.00;101458.28;5310312;28;20119;-69
2023/09/29 00:27:25;;;;;;;12.00;4.83;;;;;;;18.43;100.00;101460.13;5284984;28;20025;-70
2023/09/29 00:29:56;;;;;;;13.07;4.63;;;;;;;18.44;100.00;101469.78;5286669;28;20443;-69
2023/09/29 00:32:28;;;;;;;7.93;4.17;;;;;;;18.44;100.00;101460.97;5278488;28;20020;-69
2023/09/29 00:34:59;;;;;;;11.03;5.00;;;;;;;18.46;100.00;101444.00;5308559;28;20669;-69
2023/09/29 00:37:31;;;;;;;9.70;3.87;;;;;;;18.60;100.00;101453.44;5311361;28;20093;-70
2023/09/29 00:40:11;;;;;;;17.50;4.17;;;;;;;18.61;100.00;101455.09;5291268;28;20028;-70
2023/09/29 00:42:43;;;;;;;11.10;4.87;;;;;;;18.54;100.00;101439.81;5283958;28;20027;-70
2023/09/29 00:45:19;;;;;;;8.80;4.30;;;;;;;18.57;100.00;101450.19;5298031;28;20466;-70
2023/09/29 00:47:52;;;;;;;16.67;4.97;;;;;;;18.60;100.00;101448.13;5296170;28;20024;-69
2023/09/29 00:50:26;;;;;;;11.03;4.67;;;;;;;18.60;100.00;101440.16;5310948;28;20019;-70
2023/09/29 00:52:59;;;;;;;9.15;4.30;;;;;;;18.61;100.00;101436.53;5278442;28;20509;-70
2023/09/29 00:55:32;;;;;;;9.80;4.20;;;;;;;18.75;100.00;101439.81;5292317;28;20030;-70
2023/09/29 00:58:06;;;;;;;8.03;3.83;;;;;;;18.53;100.00;101444.31;5294356;28;20052;-70
2023/09/29 01:00:40;;;;;;;8.00;4.38;;;;;;;18.59;100.00;101433.16;5301205;28;20024;-69
2023/09/29 01:03:14;;;;;;;8.60;4.47;;;;;;;18.52;100.00;101441.78;5296588;28;20073;-69
2023/09/29 01:05:47;;;;;;;9.32;4.40;;;;;;;18.61;100.00;101439.19;5297346;28;20035;-70
2023/09/29 01:08:23;;;;;;;8.80;4.23;;;;;;;18.76;100.00;101432.69;5300105;28;20537;-70
2023/09/29 01:10:54;;;;;;;12.73;5.10;;;;;;;18.64;100.00;101429.28;5307128;28;20019;-70
2023/09/29 01:16:06;;;;;;;10.97;4.40;;;;;;;18.43;100.00;101408.94;5242946;28;20050;-78
2023/09/29 01:18:44;;;;;;;8.73;3.40;;;;;;;18.34;100.00;101384.88;5246453;28;20041;-79
2023/09/29 01:21:15;;;;;;;5.93;3.03;;;;;;;18.28;100.00;101366.81;5230451;28;20055;-78
2023/09/29 01:23:47;;;;;;;12.53;3.93;;;;;;;18.55;100.00;101405.25;5239007;28;20524;-78
2023/09/29 01:26:20;;;;;;;9.13;4.07;;;;;;;18.35;100.00;101386.53;5239780;28;20029;-77
2023/09/29 01:28:52;;;;;;;7.93;3.67;;;;;;;18.32;100.00;101388.63;5239679;28;20130;-78
2023/09/29 01:31:24;;;;;;;7.57;3.53;;;;;;;18.38;100.00;101380.97;5221562;28;20482;-80
2023/09/29 01:34:32;;;;;;;11.00;3.40;;;;;;;18.66;100.00;101404.28;5238625;28;20022;-81
2023/09/29 01:37:51;;;;;;;6.87;3.93;;;;;;;18.70;100.00;101402.22;5238990;28;20036;-80
2023/09/29 01:40:23;;;;;;;8.17;3.30;;;;;;;18.46;100.00;101382.13;5238777;28;20021;-80
2023/09/29 01:42:56;;;;;;;10.40;3.93;;;;;;;18.47;100.00;101374.06;5221076;28;20025;-80
2023/09/29 01:45:31;;;;;;;7.73;2.80;;;;;;;18.34;100.00;101353.06;5236051;28;20032;-81
2023/09/29 01:48:04;;;;;;;9.90;3.63;;;;;;;18.55;100.00;101391.97;5236840;28;20287;-81
2023/09/29 01:50:36;;;;;;;7.97;4.00;;;;;;;18.37;100.00;101365.19;5240592;28;20031;-81
2023/09/29 01:53:07;;;;;;;6.43;3.13;;;;;;;18.27;100.00;101359.84;5240202;28;20040;-80
2023/09/29 01:55:39;;;;;;;7.17;2.90;;;;;;;18.51;100.00;101364.03;5257259;28;20035;-81
2023/09/29 01:58:11;;;;;;;9.93;3.10;;;;;;;18.34;100.00;101328.34;5257104;28;20060;-81
2023/09/29 02:00:42;;;;;;;8.73;4.47;;;;;;;18.53;100.00;101371.84;5256222;28;20216;-79
2023/09/29 02:03:13;;;;;;;5.07;2.70;;;;;;;18.43;100.00;101347.94;5245116;28;20040;-79
2023/09/29 02:05:46;;;;;;;8.33;3.13;;;;;;;18.55;100.00;101368.09;5253801;28;20036;-80
2023/09/29 02:08:18;;;;;;;6.07;2.70;;;;;;;18.51;100.00;101350.75;5255984;28;20055;-79
2023/09/29 02:10:50;;;;;;;7.10;3.23;;;;;;;18.43;100.00;101337.34;5256490;28;20029;-79
2023/09/29 02:13:21;;;;;;;4.60;2.80;;;;;;;18.34;100.00;101338.97;5256798;28;20498;-80
2023/09/29 02:15:53;;;;;;;7.47;2.87;;;;;;;18.26;100.00;101313.09;5284948;28;20056;-80
2023/09/29 02:18:24;;;;;;;5.37;2.90;;;;;;;18.34;100.00;101323.91;5281995;28;20108;-79
2023/09/29 02:20:57;;;;;;;7.45;3.25;;;;;;;18.48;100.00;101343.06;5281366;28;20035;-78
2023/09/29 02:23:28;;;;;;;8.30;3.17;;;;;;;18.45;100.00;101338.03;5272361;28;20020;-80
2023/09/29 02:26:00;;;;;;;4.00;2.77;;;;;;;18.45;100.00;101330.09;5316326;28;20018;-79
2023/09/29 02:28:40;;;;;;;6.13;2.70;;;;;;;18.74;100.00;101355.88;5289315;28;20019;-78
2023/09/29 02:31:12;;;;;;;8.63;3.10;;;;;;;18.46;100.00;101329.09;5291206;28;20040;-79
2023/09/29 02:33:44;;;;;;;4.80;2.60;;;;;;;18.45;100.00;101324.78;5307699;28;20028;-79
2023/09/29 02:36:15;;;;;;;10.43;3.10;;;;;;;18.45;100.00;101325.59;5290844;28;20083;-79
2023/09/29 02:38:48;;;;;;;9.27;3.03;;;;;;;18.49;100.00;101336.78;5296773;28;20020;-79
2023/09/29 02:41:20;;;;;;;5.40;2.93;;;;;;;18.48;100.00;101314.72;5281079;28;20449;-79
2023/09/29 02:43:51;;;;;;;5.03;2.80;;;;;;;18.42;100.00;101304.66;5280419;28;20016;-80
2023/09/29 02:46:23;;;;;;;5.93;2.63;;;;;;;18.43;100.00;101313.47;5255575;28;20059;-80
2023/09/29 02:48:54;;;;;;;5.93;3.03;;;;;;;18.52;100.00;101310.00;5276064;28;20430;-79
2023/09/29 02:51:25;;;;;;;5.80;2.57;;;;;;;18.39;100.00;101291.69;5285867;28;20093;-79
2023/09/29 02:53:57;;;;;;;4.83;3.10;;;;;;;18.58;100.00;101319.25;5282583;28;20087;-79
2023/09/29 02:56:28;;;;;;;5.87;3.47;;;;;;;18.41;100.00;101303.00;5289031;28;20016;-79
2023/09/29 02:59:01;;;;;;;9.83;3.40;;;;;;;18.42;100.00;101298.50;5288298;28;20036;-79
2023/09/29 03:01:34;;;;;;;6.33;2.30;;;;;;;18.53;100.00;101294.94;5294000;28;20024;-80
2023/09/29 03:04:05;;;;;;;5.67;2.83;;;;;;;18.40;100.00;101279.25;5294617;28;20024;-78
2023/09/29 03:06:37;;;;;;;5.57;2.70;;;;;;;18.44;100.00;101285.97;5280889;28;20086;-79
2023/09/29 03:09:13;;;;;;;6.87;2.93;;;;;;;18.52;100.00;101287.97;5279665;28;20028;-78
2023/09/29 03:11:44;;;;;;;6.43;2.90;;;;;;;18.49;100.00;101304.97;5289157;28;20016;-80
2023/09/29 03:14:16;;;;;;;8.97;3.23;;;;;;;18.60;100.00;101296.94;5277349;28;20027;-80
2023/09/29 03:16:48;;;;;;;9.67;3.00;;;;;;;18.47;100.00;101291.00;5270108;28;20032;-79
2023/09/29 03:19:20;;;;;;;6.10;2.63;;;;;;;18.53;100.00;101294.94;5277841;28;20426;-79
2023/09/29 03:21:52;;;;;;;3.53;2.10;;;;;;;18.42;100.00;101280.78;5259562;28;20035;-79
2023/09/29 03:24:26;;;;;;;6.67;2.60;;;;;;;18.64;100.00;101292.16;5275660;28;20085;-79
2023/09/29 03:26:58;;;;;;;4.50;1.95;;;;;;;18.43;100.00;101269.19;5277073;28;20391;-79
2023/09/29 03:29:35;;;;;;;5.17;2.47;;;;;;;18.51;100.00;101260.59;5276702;28;20024;-79
2023/09/29 03:32:08;;;;;;;7.23;2.90;;;;;;;18.47;100.00;101269.78;5279330;28;20028;-79
2023/09/29 03:34:41;;;;;;;3.93;2.73;;;;;;;18.26;100.00;101242.34;5259132;28;20059;-80
2023/09/29 03:37:12;;;;;;;4.57;2.27;;;;;;;18.47;100.00;101253.88;5259404;28;20047;-80
2023/09/29 03:39:44;;;;;;;5.00;2.50;;;;;;;18.61;100.00;101276.53;5277347;28;20070;-80
2023/09/29 03:42:16;;;;;;;6.63;2.80;;;;;;;18.48;100.00;101250.25;5258812;28;20116;-80
2023/09/29 03:44:47;;;;;;;5.07;2.67;;;;;;;18.45;100.00;101251.34;5276058;28;20043;-81
2023/09/29 03:47:19;;;;;;;5.47;2.87;;;;;;;18.49;100.00;101233.34;5276185;28;20020;-81
2023/09/29 03:49:51;;;;;;;4.70;2.20;;;;;;;18.53;100.00;101253.34;5253973;28;20070;-81
2023/09/29 03:52:22;;;;;;;5.17;2.70;;;;;;;18.60;100.00;101248.34;5266807;28;20028;-80
2023/09/29 03:54:54;;;;;;;5.97;2.57;;;;;;;18.46;100.00;101220.38;5276520;28;20387;-80
2023/09/29 03:57:25;;;;;;;5.27;2.60;;;;;;;18.35;100.00;101223.97;5250794;28;20036;-79
2023/09/29 03:59:56;;;;;;;6.63;2.40;;;;;;;18.32;100.00;101216.28;5259202;28;20082;-78
2023/09/29 04:02:28;;;;;;;10.13;3.00;;;;;;;18.35;100.00;101219.50;5276275;28;20056;-78
2023/09/29 04:04:59;;;;;;;6.47;2.43;;;;;;;18.52;100.00;101250.84;5275731;28;20029;-78
2023/09/29 04:07:30;;;;;;;4.47;2.23;;;;;;;18.50;100.00;101233.22;5276441;28;20034;-77
2023/09/29 04:10:05;;;;;;;6.30;2.97;;;;;;;18.47;100.00;101216.75;5257950;28;20033;-78
2023/09/29 04:12:37;;;;;;;5.90;2.77;;;;;;;18.38;100.00;101202.47;5272089;28;20024;-79
2023/09/29 04:15:09;;;;;;;7.53;2.90;;;;;;;18.45;100.00;101213.41;5283121;28;20166;-77
2023/09/29 04:17:41;;;;;;;7.43;3.33;;;;;;;18.42;100.00;101218.97;5275713;28;20456;-80
2023/09/29 04:20:13;;;;;;;5.60;2.70;;;;;;;18.36;100.00;101215.06;5274984;28;20040;-77
2023/09/29 04:22:45;;;;;;;5.83;2.27;;;;;;;18.60;100.00;101243.88;5275902;28;20380;-78
2023/09/29 04:25:17;;;;;;;7.03;2.93;;;;;;;18.50;100.00;101227.91;5285868;28;20031;-79
2023/09/29 04:27:49;;;;;;;4.27;2.47;;;;;;;18.43;100.00;101210.88;5257166;28;20660;-79
2023/09/29 04:30:20;;;;;;;9.03;2.60;;;;;;;18.42;100.00;101200.41;5275078;28;20028;-78
2023/09/29 04:32:55;;;;;;;6.20;2.77;;;;;;;18.47;100.00;101211.44;5275332;28;20024;-79
2023/09/29 04:35:26;;;;;;;9.98;2.50;;;;;;;18.52;100.00;101211.06;5274831;28;20032;-77
2023/09/29 04:37:57;;;;;;;9.40;2.23;;;;;;;18.33;100.00;101183.47;5284957;28;20031;-78
2023/09/29 04:40:29;;;;;;;4.60;2.90;;;;;;;18.29;100.00;101180.28;5275766;28;20139;-78
2023/09/29 04:43:02;;;;;;;7.07;2.87;;;;;;;18.62;100.00;101228.66;5256615;28;20108;-78
2023/09/29 04:45:33;;;;;;;6.47;3.00;;;;;;;18.64;100.00;101217.06;5274923;28;20020;-79
2023/09/29 04:48:05;;;;;;;5.53;2.60;;;;;;;18.58;100.00;101213.16;5256933;28;20024;-79
2023/09/29 04:50:37;;;;;;;5.03;2.67;;;;;;;18.56;100.00;101207.97;5283820;28;20020;-79
2023/09/29 04:53:08;;;;;;;6.60;2.57;;;;;;;18.45;100.00;101197.50;5259714;28;20027;-79
2023/09/29 04:55:39;;;;;;;6.77;3.30;;;;;;;18.52;100.00;101209.22;5283414;28;20013;-79
2023/09/29 04:58:11;;;;;;;5.13;2.20;;;;;;;18.42;100.00;101195.09;5286462;28;20020;-78
2023/09/29 05:00:43;;;;;;;6.10;2.77;;;;;;;18.67;100.00;101222.94;5257611;28;20361;-79
2023/09/29 05:03:14;;;;;;;5.70;2.17;;;;;;;18.66;100.00;101212.47;5256385;28;20020;-79
2023/09/29 05:05:48;;;;;;;8.57;2.67;;;;;;;18.66;100.00;101204.53;5274833;28;20048;-78
2023/09/29 05:08:20;;;;;;;5.27;2.63;;;;;;;18.65;100.00;101208.97;5284975;28;20024;-78
2023/09/29 05:10:51;;;;;;;5.67;2.67;;;;;;;18.55;100.00;101190.41;5280143;28;20506;-78
2023/09/29 05:13:22;;;;;;;5.47;2.67;;;;;;;18.61;100.00;101192.50;5284506;28;20031;-78
2023/09/29 05:15:54;;;;;;;6.33;2.50;;;;;;;18.64;100.00;101206.47;5257215;28;20033;-78
2023/09/29 05:18:46;;;;;;;7.07;2.50;;;;;;;18.82;100.00;101198.66;5249970;28;20546;-75
2023/09/29 05:21:28;;;;;;;5.07;2.60;;;;;;;18.49;100.00;101151.16;5234715;28;20056;-76
2023/09/29 05:24:30;;;;;;;5.43;2.70;;;;;;;18.96;100.00;101203.56;5246130;28;20059;-77
2023/09/29 05:27:02;;;;;;;4.03;2.77;;;;;;;18.49;100.00;101153.81;5252377;28;20033;-78
2023/09/29 05:29:53;;;;;;;6.50;3.00;;;;;;;18.61;100.00;101144.75;5234564;28;20765;-78
2023/09/29 05:32:24;;;;;;;4.73;2.60;;;;;;;18.55;100.00;101155.94;5235462;28;20029;-78
2023/09/29 05:35:01;;;;;;;4.63;2.40;;;;;;;18.65;100.00;101173.66;5253256;28;20032;-78
2023/09/29 05:37:38;;;;;;;5.77;2.70;;;;;;;18.51;100.00;101151.84;5253610;28;20025;-78
2023/09/29 05:48:08;;;;;;;6.17;2.43;;;;;;;19.10;100.00;101198.81;5047094;29;20034;-77
2023/09/29 05:50:52;;;;;;;7.90;2.72;;;;;;;18.78;100.00;101158.28;5051499;29;20036;-78
2023/09/29 05:54:07;;;;;;;4.35;2.28;;;;;;;19.10;100.00;101204.13;5051425;29;20042;-78
2023/09/29 05:56:41;;;;;;;4.50;2.17;;;;;;;18.65;100.00;101152.44;5072165;29;20177;-77
2023/09/29 05:59:12;;;;;;;10.32;3.15;;;;;;;18.75;100.00;101166.53;5073118;29;20465;-77
2023/09/29 06:01:44;;;;;;;6.20;2.23;;;;;;;18.80;100.00;101174.91;5222288;28;20045;-78
2023/09/29 06:04:16;;;;;;;6.90;2.70;;;;;;;18.91;100.00;101181.06;5232205;28;20017;-78
2023/09/29 06:08:06;;;;;;;5.83;2.57;;;;;;;19.29;100.00;101210.44;5253040;28;20029;-78
2023/09/29 06:10:30;;;;;;;5.73;2.70;;;;;;;18.91;100.00;101163.34;5232049;28;20060;-78
2023/09/29 06:13:01;;;;;;;4.13;2.50;;;;;;;19.00;100.00;101198.81;5239992;28;20079;-79
2023/09/29 06:15:32;;;;;;;6.47;2.73;;;;;;;18.84;100.00;101173.69;5255793;28;20052;-78
2023/09/29 06:18:04;;;;;;;5.77;3.03;;;;;;;19.02;100.00;101202.19;5283235;28;20700;-77
2023/09/29 06:20:36;;;;;;;6.57;2.97;;;;;;;19.10;100.00;101222.72;5255194;28;20064;-80
2023/09/29 06:23:07;;;;;;;5.63;2.80;;;;;;;19.00;100.00;101188.22;5265984;28;20101;-78
2023/09/29 06:25:38;;;;;;;8.67;3.57;;;;;;;18.90;100.00;101166.13;5271859;28;20024;-78
2023/09/29 06:28:10;;;;;;;5.27;2.90;;;;;;;19.06;100.00;101178.84;5267166;28;20024;-79
2023/09/29 06:30:42;;;;;;;5.80;2.67;;;;;;;19.13;100.00;101179.16;5255076;28;20025;-78
2023/09/29 06:33:13;;;;;;;5.90;2.20;;;;;;;19.25;100.00;101198.44;5272232;28;20085;-79
2023/09/29 06:35:45;;;;;;;5.97;2.57;;;;;;;19.14;100.00;101176.38;5273717;28;20619;-79
2023/09/29 06:38:18;;;;;;;5.53;2.50;;;;;;;19.23;100.00;101190.63;5273657;28;20036;-79
2023/09/29 06:40:51;;;;;;;6.38;2.40;;;;;;;19.30;100.00;101181.13;5274409;28;20028;-78
2023/09/29 06:43:33;;;;;;;6.20;3.17;;;;;;;19.42;100.00;101194.22;5274214;28;20583;-78
2023/09/29 06:46:14;;;;;;;10.40;3.30;;;;;;;19.66;100.00;101227.44;5253022;28;20029;-78
2023/09/29 06:48:54;;;;;;;5.90;2.63;;;;;;;19.36;100.00;101189.50;5265723;28;20032;-78
2023/09/29 06:51:30;;;;;;;3.77;2.00;;;;;;;19.53;100.00;101219.78;5257439;28;20040;-78
2023/09/29 06:54:02;;;;;;;5.80;2.23;;;;;;;19.35;100.00;101193.94;5256232;28;20428;-79
2023/09/29 06:56:34;;;;;;;4.27;1.80;;;;;;;19.28;100.00;101180.41;5274456;28;20017;-80
2023/09/29 06:59:05;;;;;;;4.67;2.70;;;;;;;19.51;100.00;101209.31;5276821;28;20051;-77
2023/09/29 07:05:05;;;;;;;5.83;2.53;;;;;;;19.46;100.00;101195.63;5286482;28;20051;-79
2023/09/29 07:15:39;;;;;;;;;;;;;;;;;;;;;
2023/09/29 07:18:47;;;;;;;6.10;2.37;;;;;;;19.81;100.00;101204.75;5250973;28;20039;-74
2023/09/29 07:24:47;;;;;;;3.07;1.70;;;;;;;20.05;100.00;101234.53;5251590;28;20045;-75
2023/09/29 07:31:45;;;;;;;7.20;3.20;;;;;;;20.35;100.00;101247.69;5184128;28;20552;-76
2023/09/29 07:34:17;;;;;;;7.90;3.53;;;;;;;20.19;100.00;101219.91;5188142;28;20045;-75
2023/09/29 07:36:49;;;;;;;6.17;2.17;;;;;;;20.25;100.00;101219.31;5237192;28;20037;-75
2023/09/29 07:39:20;;;;;;;4.00;2.07;;;;;;;;;;5231649;28;20032;-75
2023/09/29 07:41:52;;;;;;;5.83;2.40;;;;;;;20.63;100.00;101245.03;5248348;28;20033;-76
2023/09/29 07:44:24;;;;;;;3.40;1.97;;;;;;;20.60;100.00;101229.34;5233894;28;20116;-77
2023/09/29 07:46:55;;;;;;;5.93;2.13;;;;;;;20.83;100.00;101236.91;5252660;28;20747;-75
2023/09/29 07:49:26;;;;;;;4.60;2.00;;;;;;;20.97;100.00;101239.09;5253220;28;20039;-76
2023/09/29 07:51:58;;;;;;;5.50;1.77;;;;;;;21.04;100.00;101236.66;5252712;28;20107;-75
2023/09/29 07:54:29;;;;;;;7.60;2.00;;;;;;;21.28;100.00;101237.88;5233730;28;20694;-75
2023/09/29 07:57:01;;;;;;;7.00;1.77;;;;;;;21.49;100.00;101256.19;5251752;28;20036;-75
2023/09/29 07:59:33;;;;;;;5.93;1.60;;;;;;;21.55;100.00;101248.56;5232768;28;20395;-75
2023/09/29 08:02:04;;;;;;;4.90;2.40;;;;;;;21.68;100.00;101249.00;5252566;28;20025;-75
2023/09/29 08:04:35;;;;;;;5.00;2.17;;;;;;;21.82;100.00;101252.13;5253026;28;20504;-74
2023/09/29 08:07:07;;;;;;;4.93;2.10;;;;;;;21.99;100.00;101256.53;5251480;28;20025;-75
2023/09/29 08:09:38;;;;;;;3.88;2.13;;;;;;;21.91;100.00;101243.19;5253236;28;20021;-75
2023/09/29 08:12:11;;;;;;;3.70;1.70;;;;;;;22.12;100.00;101244.63;5251972;28;20035;-75
2023/09/29 08:14:43;;;;;;;6.95;1.90;;;;;;;22.50;100.00;101270.13;5261253;28;20040;-76
2023/09/29 08:17:14;;;;;;;7.47;2.00;;;;;;;22.68;100.00;101264.72;5266316;28;20572;-75
2023/09/29 08:19:45;;;;;;;6.20;2.45;;;;;;;23.05;100.00;101279.50;5293661;28;20050;-75
2023/09/29 08:22:17;;;;;;;4.40;1.83;;;;;;;23.09;100.00;101266.66;5275885;28;20024;-75
2023/09/29 08:24:48;;;;;;;4.80;1.95;;;;;;;23.15;100.00;101267.81;5294839;28;20034;-75
2023/09/29 08:27:19;;;;;;;4.30;1.90;;;;;;;23.69;100.00;101290.56;5265004;28;20330;-74
2023/09/29 08:29:51;;;;;;;3.78;1.83;;;;;;;23.77;100.00;101269.13;5275080;28;20028;-75
2023/09/29 08:32:22;;;;;;;4.20;1.98;;;;;;;24.01;100.00;101285.31;5275366;28;20027;-75
2023/09/29 08:34:54;;;;;;;5.20;1.92;;;;;;;24.08;100.00;101291.66;5294006;28;20020;-75
2023/09/29 08:37:25;;;;;;;6.18;2.55;;;;;;;24.01;100.00;101304.03;5249210;28;20024;-74
2023/09/29 08:39:57;;;;;;;8.02;2.30;;;;;;;23.73;100.00;101293.72;5291342;28;20225;-75
2023/09/29 08:42:36;;;;;;;4.45;1.92;;;;;;;23.74;100.00;101317.63;5294266;28;20383;-75
2023/09/29 08:45:09;;;;;;;4.57;1.95;;;;;;;23.31;100.00;101293.69;5278779;28;20122;-75
2023/09/29 08:47:41;;;;;;;6.47;2.80;;;;;;;23.19;100.00;101314.56;5279731;28;20475;-75
2023/09/29 08:50:14;;;;;;;7.78;2.40;;;;;;;23.06;100.00;101315.03;5293115;28;20308;-75
2023/09/29 08:52:49;;;;;;;9.70;2.22;;;;;;;23.01;100.00;101312.00;5294214;28;20028;-75
2023/09/29 08:55:23;;;;;;;5.45;2.38;;;;;;;22.91;100.00;101318.34;5274510;28;20020;-75
2023/09/29 08:57:55;;;;;;;5.07;2.67;;;;;;;22.96;100.00;101324.03;5266297;28;20032;-75
2023/09/29 09:00:27;;;;;;;5.82;2.20;;;;;;;23.01;100.00;101317.34;5292541;28;20093;-75
2023/09/29 09:03:00;;;;;;;4.00;2.15;;;;;;;22.99;100.00;101309.50;5292700;28;20028;-74
2023/09/29 09:05:32;;;;;;;5.93;2.50;;;;;;;22.89;100.00;101314.16;5293822;28;20028;-76
2023/09/29 09:08:04;;;;;;;9.60;2.55;;;;;;;22.88;100.00;101301.81;5275317;28;20024;-75
2023/09/29 09:10:36;;;;;;;10.82;2.90;;;;;;;23.00;100.00;101331.72;5260540;28;20573;-74
2023/09/29 09:13:08;;;;;;;5.78;2.17;;;;;;;22.89;100.00;101327.50;5293649;28;20135;-75
2023/09/29 09:15:39;;;;;;;7.28;2.65;;;;;;;22.84;100.00;101317.31;5243099;28;20065;-75
2023/09/29 09:18:10;;;;;;;3.85;2.05;;;;;;;22.63;100.00;101304.41;5272080;28;20060;-75
2023/09/29 09:20:42;;;;;;;5.20;2.70;;;;;;;22.79;100.00;101330.31;5254277;28;20093;-73
2023/09/29 09:23:13;;;;;;;4.22;2.38;;;;;;;22.83;100.00;101342.38;5271576;28;20028;-76
2023/09/29 09:25:45;;;;;;;8.57;3.78;;;;;;;22.65;100.00;101329.94;5271461;28;20024;-76
2023/09/29 09:28:18;;;;;;;8.32;3.42;;;;;;;22.69;100.00;101352.63;5258631;28;20033;-74
2023/09/29 09:31:03;;;;;;;5.38;2.53;;;;;;;22.89;100.00;101347.03;5253074;28;20020;-75
2023/09/29 09:33:35;;;;;;;4.90;2.50;;;;;;;22.53;100.00;101321.38;5261732;28;20021;-75
2023/09/29 09:36:10;;;;;;;7.07;2.70;;;;;;;22.60;100.00;101332.22;5267086;28;20450;-75
2023/09/29 09:38:42;;;;;;;5.10;2.85;;;;;;;22.63;100.00;101334.59;5272266;28;20016;-76
2023/09/29 09:41:15;;;;;;;9.20;2.72;;;;;;;22.79;100.00;101362.38;5271407;28;20184;-74
2023/09/29 09:43:47;;;;;;;6.93;2.78;;;;;;;22.61;100.00;101328.56;5261973;28;20107;-75
2023/09/29 09:46:19;;;;;;;4.80;2.10;;;;;;;22.65;100.00;101358.47;5248424;28;20182;-76
2023/09/29 09:49:07;;;;;;;6.35;2.53;;;;;;;22.67;100.00;101362.63;5271881;28;20428;-76
2023/09/29 09:51:42;;;;;;;7.45;2.78;;;;;;;22.46;100.00;101347.00;5271314;28;20013;-75
2023/09/29 09:54:20;;;;;;;4.95;2.58;;;;;;;22.49;100.00;101341.34;5271536;28;20054;-75
2023/09/29 09:57:11;;;;;;;7.65;2.60;;;;;;;22.65;100.00;101358.47;5257040;28;20073;-75
2023/09/29 09:59:44;;;;;;;4.50;2.35;;;;;;;22.49;100.00;101373.38;5271057;28;20082;-75
2023/09/29 10:02:16;;;;;;;6.68;2.63;;;;;;;22.36;100.00;101355.09;5270312;28;20028;-74
2023/09/29 10:04:49;;;;;;;7.32;2.80;;;;;;;22.35;100.00;101369.44;5271116;28;20027;-76
2023/09/29 10:07:21;;;;;;;4.93;3.13;;;;;;;22.48;100.00;101383.19;5270770;28;20016;-76
2023/09/29 10:09:52;;;;;;;7.93;2.55;;;;;;;22.36;100.00;101373.78;5242800;28;20029;-75
2023/09/29 10:12:28;;;;;;;6.70;2.58;;;;;;;22.47;100.00;101373.53;5267883;28;20435;-75
2023/09/29 10:15:00;;;;;;;6.10;3.17;;;;;;;22.39;100.00;101378.84;5269740;28;20395;-74
2023/09/29 10:17:39;;;;;;;7.05;3.35;;;;;;;22.40;100.00;101374.31;5271464;28;20035;-75
2023/09/29 10:20:21;;;;;;;6.38;2.50;;;;;;;22.40;100.00;101380.50;5257033;28;20634;-75
2023/09/29 10:23:07;;;;;;;6.75;2.92;;;;;;;22.38;100.00;101363.78;5253382;28;20495;-75
2023/09/29 10:25:40;;;;;;;9.68;2.10;;;;;;;22.24;100.00;101368.72;5253160;28;20483;-75
2023/09/29 10:28:12;;;;;;;6.22;2.45;;;;;;;22.36;100.00;101381.78;5270796;28;20028;-75
2023/09/29 10:30:44;;;;;;;4.07;2.50;;;;;;;22.34;100.00;101373.13;5270081;28;20032;-75
2023/09/29 10:33:18;;;;;;;5.53;3.00;;;;;;;22.24;100.00;101359.88;5253080;28;20076;-76
2023/09/29 10:35:51;;;;;;;8.30;3.58;;;;;;;22.36;100.00;101381.78;5270205;28;20155;-75
2023/09/29 10:38:23;;;;;;;6.40;2.75;;;;;;;22.32;100.00;101383.97;5257657;28;20512;-76
2023/09/29 10:40:58;;;;;;;4.53;2.55;;;;;;;22.15;100.00;101360.84;5271173;28;20028;-76
2023/09/29 10:43:29;;;;;;;;;;;;;;;22.96;100.00;101414.84;5269894;28;20198;-76
2023/09/29 10:46:07;;;;;;;7.70;3.20;;;;;;;22.67;100.00;101413.34;5270201;28;19923;-76
2023/09/29 10:48:50;;;;;;;8.27;2.55;;;;;;;22.41;100.00;101376.81;5271006;28;20025;-76
2023/09/29 10:51:30;;;;;;;5.35;2.45;;;;;;;22.41;100.00;101376.81;5252852;28;20067;-76
2023/09/29 10:54:06;;;;;;;4.93;2.60;;;;;;;22.28;100.00;101377.25;5270650;28;20503;-75
2023/09/29 10:56:38;;;;;;;6.55;2.45;;;;;;;22.34;100.00;101400.63;5271369;28;20388;-76
2023/09/29 10:59:09;;;;;;;8.95;3.13;;;;;;;22.29;100.00;101394.09;5268187;28;20032;-75
2023/09/29 11:01:44;;;;;;;6.68;2.28;;;;;;;22.38;100.00;101424.34;5270675;28;20028;-75
2023/09/29 11:04:15;;;;;;;3.65;2.20;;;;;;;22.27;100.00;101406.75;5270256;28;20056;-76
2023/09/29 11:06:49;;;;;;;5.45;2.55;;;;;;;22.42;100.00;101415.03;5270083;28;20058;-76
2023/09/29 11:09:25;;;;;;;;;;;;;;;23.15;100.00;101436.09;5271240;28;20048;-76
2023/09/29 11:11:58;;;;;;;5.82;2.80;;;;;;;22.76;100.00;101410.75;5270324;28;19912;-75
2023/09/29 11:14:36;;;;;;;5.13;2.13;;;;;;;23.04;100.00;101434.56;5271471;28;20048;-75
2023/09/29 11:17:08;;;;;;;4.20;2.05;;;;;;;22.84;100.00;101398.28;5270032;28;20036;-76
2023/09/29 11:19:50;;;;;;;4.88;2.20;;;;;;;23.00;100.00;101407.34;5274932;28;20086;-76
2023/09/29 11:22:24;;;;;;;4.72;2.03;;;;;;;23.05;100.00;101437.09;5274396;28;20441;-76
2023/09/29 11:24:56;;;;;;;;;;;;;;;23.57;100.00;101437.09;5281035;28;20066;-76
2023/09/29 11:27:30;;;;;;;5.35;2.28;;;;;;;23.01;100.00;101434.88;5283146;28;19969;-76
2023/09/29 11:30:03;;;;;;;5.13;2.20;;;;;;;22.75;100.00;101419.72;5270580;28;20212;-76
2023/09/29 11:32:37;;;;;;;7.73;2.40;;;;;;;22.75;100.00;101443.75;5285502;28;20103;-74
2023/09/29 11:35:13;;;;;;;4.43;1.65;;;;;;;22.70;100.00;101447.75;5291146;28;20570;-75
2023/09/29 11:37:45;;;;;;;4.18;2.35;;;;;;;22.65;100.00;101463.41;5282523;28;20055;-75
2023/09/29 11:40:16;;;;;;;2.80;1.38;;;;;;;22.64;100.00;101461.72;5275012;28;20060;-75
2023/09/29 11:42:49;;;;;;;5.60;1.65;;;;;;;22.62;100.00;101449.53;5273895;28;20039;-76
2023/09/29 11:45:20;;;;;;;2.70;1.55;;;;;;;22.63;100.00;101461.88;5256121;28;20035;-76
2023/09/29 11:47:52;;;;;;;3.65;1.95;;;;;;;22.47;100.00;101456.25;5273490;28;20388;-76
2023/09/29 11:50:23;;;;;;;4.20;1.40;;;;;;;22.59;100.00;101461.31;5274224;28;20024;-76
2023/09/29 11:52:55;;;;;;;5.35;2.17;;;;;;;22.45;100.00;101462.72;5274025;28;20364;-76
2023/09/29 11:55:27;;;;;;;6.00;2.05;;;;;;;22.44;100.00;101467.25;5273608;28;20020;-75
2023/09/29 11:57:58;;;;;;;4.00;1.88;;;;;;;22.41;100.00;101480.88;5266960;28;20077;-75
2023/09/29 12:00:30;;;;;;;3.75;2.10;;;;;;;22.42;100.00;101474.56;5288539;28;20563;-75
2023/09/29 12:03:05;;;;;;;3.40;1.67;;;;;;;22.25;100.00;101460.28;5255969;28;20033;-75
2023/09/29 12:05:37;;;;;;;5.90;1.60;;;;;;;22.29;100.00;101460.81;5274254;28;20395;-76
2023/09/29 12:08:08;;;;;;;4.82;1.58;;;;;;;22.30;100.00;101465.13;5273246;28;20028;-75
2023/09/29 12:10:40;;;;;;;4.28;2.03;;;;;;;22.21;100.00;101464.22;5274371;28;20488;-76
2023/09/29 12:13:15;;;;;;;4.50;1.90;;;;;;;22.27;100.00;101473.47;5272924;28;20747;-76
2023/09/29 12:15:46;;;;;;;3.97;2.17;;;;;;;22.11;100.00;101467.00;5273532;28;20067;-77
2023/09/29 12:18:17;;;;;;;5.70;2.45;;;;;;;22.33;100.00;101487.00;5255597;28;20051;-76
2023/09/29 12:20:52;;;;;;;4.75;2.00;;;;;;;22.16;100.00;101483.38;5272860;28;20035;-75